Terminal Aerodrome Forecast
Issued by NWS

Current Version | Previous Version | Graphics & Text | Print | Product List | Glossary On
Versions: 1 2 3 4 5 6 7 8 9 10 11 12 13 14 15 16 17 18 19
000
FTUS41 KPBZ 202326
TAFHLG
TAF
KHLG 202326Z 2100/2124 00000KT P6SM SCT100
     FM210600 00000KT 1SM BR SCT003
      TEMPO 2108/2112 1/2SM FG VV003
     FM211300 00000KT P6SM SCT040=

USA.gov is the U.S. government's official web portal to all federal, state and local government web resources and services.